Time;durP1;ratioP1;P1;durP2;ratioP2;P2;SDS_P1;SDS_P2;PMS_P1;PMS_P2;Temp;Humidity;BMP_temperature;BMP_pressure;BME280_temperature;BME280_humidity;BME280_pressure;Samples;Min_cycle;Max_cycle;Signal;HPM_P1;HPM_P2
2022/08/27 00:00:36;;;;;;;11.25;3.63;;;;;;;;;;5203579;28;20101;-66
2022/08/27 00:03:06;;;;;;;3.63;3.43;;;;;;;;;;5203747;28;20084;-66
2022/08/27 00:05:37;;;;;;;6.38;3.67;;;;;;;;;;5203521;28;20338;-66
2022/08/27 00:08:08;;;;;;;5.68;3.22;;;;;;;;;;5204363;28;20086;-66
2022/08/27 00:10:39;;;;;;;4.38;3.00;;;;;;;;;;5204067;28;20063;-67
2022/08/27 00:13:09;;;;;;;4.55;4.25;;;;;;;;;;5203789;28;20418;-66
2022/08/27 00:15:39;;;;;;;4.07;3.17;;;;;;;;;;5203111;28;20104;-67
2022/08/27 00:18:10;;;;;;;3.13;2.97;;;;;;;;;;5203570;28;20469;-67
2022/08/27 00:20:43;;;;;;;4.82;4.35;;;;;;;;;;5202977;28;20504;-66
2022/08/27 00:23:13;;;;;;;3.88;3.67;;;;;;;;;;5203563;28;20092;-67
2022/08/27 00:25:44;;;;;;;3.83;3.50;;;;;;;;;;5202045;28;20088;-66
2022/08/27 00:28:14;;;;;;;4.07;3.78;;;;;;;;;;5202883;28;20636;-66
2022/08/27 00:30:45;;;;;;;6.35;4.35;;;;;;;;;;5203667;28;20163;-67
2022/08/27 00:33:15;;;;;;;9.60;3.92;;;;;;;;;;5202932;28;20033;-66
2022/08/27 00:35:45;;;;;;;3.22;2.92;;;;;;;;;;5203507;28;20027;-67
2022/08/27 00:38:15;;;;;;;4.60;4.20;;;;;;;;;;5203411;28;20041;-67
2022/08/27 00:40:46;;;;;;;8.32;4.07;;;;;;;;;;5203354;28;20014;-67
2022/08/27 00:43:20;;;;;;;3.65;3.45;;;;;;;;;;5201623;28;20044;-67
2022/08/27 00:45:53;;;;;;;4.55;4.15;;;;;;;;;;5202110;28;20033;-67
2022/08/27 00:48:27;;;;;;;4.90;4.25;;;;;;;;;;5201612;28;20448;-67
2022/08/27 00:50:57;;;;;;;3.13;2.92;;;;;;;;;;5203333;28;20018;-67
2022/08/27 00:53:28;;;;;;;3.65;3.35;;;;;;;;;;5203076;28;20017;-67
2022/08/27 00:56:03;;;;;;;3.67;3.42;;;;;;;;;;5203232;28;20021;-67
2022/08/27 00:58:36;;;;;;;7.80;4.40;;;;;;;;;;5202307;28;20025;-67
2022/08/27 01:01:08;;;;;;;4.22;3.55;;;;;;;;;;5203177;28;20040;-67
2022/08/27 01:03:39;;;;;;;4.53;4.13;;;;;;;;;;5203435;28;20121;-67
2022/08/27 01:06:11;;;;;;;4.10;3.80;;;;;;;;;;5203548;28;20100;-67
2022/08/27 01:08:47;;;;;;;4.63;3.85;;;;;;;;;;5203575;28;20029;-66
2022/08/27 01:11:18;;;;;;;3.88;3.58;;;;;;;;;;5202996;28;20024;-67
2022/08/27 01:13:48;;;;;;;3.13;3.03;;;;;;;;;;5202734;28;20025;-67
2022/08/27 01:16:25;;;;;;;6.07;4.20;;;;;;;;;;5203078;28;20049;-66
2022/08/27 01:18:57;;;;;;;15.00;5.13;;;;;;;;;;5203578;28;20500;-67
2022/08/27 01:21:53;;;;;;;3.60;3.22;;;;;;;;;;5203020;28;20029;-67
2022/08/27 01:24:23;;;;;;;4.28;3.60;;;;;;;;;;5202492;28;20107;-66
2022/08/27 01:26:54;;;;;;;2.88;2.78;;;;;;;;;;5202869;28;20353;-66
2022/08/27 01:29:25;;;;;;;6.30;4.05;;;;;;;;;;5202673;28;20675;-66
2022/08/27 01:32:05;;;;;;;4.93;4.25;;;;;;;;;;5202536;28;20022;-67
2022/08/27 01:34:35;;;;;;;3.28;3.00;;;;;;;;;;5205361;28;20063;-66
2022/08/27 01:37:06;;;;;;;3.88;3.58;;;;;;;;;;5206605;28;20039;-66
2022/08/27 01:39:40;;;;;;;4.95;4.65;;;;;;;;;;5206359;28;20022;-66
2022/08/27 01:42:16;;;;;;;6.20;4.75;;;;;;;;;;5206437;28;20037;-66
2022/08/27 01:44:52;;;;;;;6.97;4.95;;;;;;;;;;5206154;28;20384;-66
2022/08/27 01:47:23;;;;;;;5.47;5.05;;;;;;;;;;5206451;28;20025;-67
2022/08/27 01:49:54;;;;;;;4.07;3.72;;;;;;;;;;5206365;28;20021;-67
2022/08/27 01:52:25;;;;;;;6.15;4.78;;;;;;;;;;5204748;28;20029;-66
2022/08/27 01:54:56;;;;;;;6.55;5.07;;;;;;;;;;5204047;28;20030;-66
2022/08/27 01:57:26;;;;;;;5.22;4.57;;;;;;;;;;5205759;28;20105;-66
2022/08/27 01:59:56;;;;;;;4.15;3.78;;;;;;;;;;5205676;28;20014;-66
2022/08/27 02:02:27;;;;;;;3.45;3.25;;;;;;;;;;5205799;28;20017;-67
2022/08/27 02:04:57;;;;;;;12.80;3.97;;;;;;;;;;5205134;28;20017;-67
2022/08/27 02:07:27;;;;;;;16.58;5.13;;;;;;;;;;5206155;28;20454;-66
2022/08/27 02:09:58;;;;;;;8.07;5.63;;;;;;;;;;5206139;28;20025;-67
2022/08/27 02:12:28;;;;;;;6.20;3.75;;;;;;;;;;5206336;28;20033;-67
2022/08/27 02:14:58;;;;;;;4.80;4.32;;;;;;;;;;5205540;28;20018;-67
2022/08/27 02:17:28;;;;;;;11.00;5.93;;;;;;;;;;5206240;28;20021;-67
2022/08/27 02:19:59;;;;;;;5.00;4.00;;;;;;;;;;5205192;28;20627;-67
2022/08/27 02:22:30;;;;;;;10.25;4.63;;;;;;;;;;5206261;28;20382;-67
2022/08/27 02:25:01;;;;;;;4.60;4.20;;;;;;;;;;5204452;28;20040;-66
2022/08/27 02:27:31;;;;;;;5.88;5.43;;;;;;;;;;5204681;28;20038;-67
2022/08/27 02:30:01;;;;;;;5.63;5.22;;;;;;;;;;5205750;28;20541;-67
2022/08/27 02:32:32;;;;;;;6.22;5.82;;;;;;;;;;5205783;28;20056;-67
2022/08/27 02:35:03;;;;;;;7.60;6.03;;;;;;;;;;5205319;28;20028;-67
2022/08/27 02:37:35;;;;;;;6.25;5.72;;;;;;;;;;5205785;28;20018;-67
2022/08/27 02:40:05;;;;;;;6.90;5.28;;;;;;;;;;5205715;28;20017;-67
2022/08/27 02:42:36;;;;;;;5.68;5.28;;;;;;;;;;5206257;28;20442;-67
2022/08/27 02:45:07;;;;;;;9.70;6.80;;;;;;;;;;5204032;28;20122;-67
2022/08/27 02:47:37;;;;;;;5.57;5.28;;;;;;;;;;5203963;28;20065;-68
2022/08/27 02:50:08;;;;;;;6.00;5.53;;;;;;;;;;5205550;28;20044;-68
2022/08/27 02:52:38;;;;;;;8.10;5.68;;;;;;;;;;5205889;28;20108;-67
2022/08/27 02:55:09;;;;;;;6.97;5.30;;;;;;;;;;5205481;28;20056;-67
2022/08/27 02:57:39;;;;;;;6.38;5.97;;;;;;;;;;5206381;28;20021;-66
2022/08/27 03:00:12;;;;;;;7.10;5.15;;;;;;;;;;5205750;28;20047;-66
2022/08/27 03:02:42;;;;;;;6.45;5.88;;;;;;;;;;5204192;28;20074;-67
2022/08/27 03:05:13;;;;;;;6.72;6.32;;;;;;;;;;5205327;28;20057;-67
2022/08/27 03:07:43;;;;;;;6.38;5.75;;;;;;;;;;5205254;28;20470;-66
2022/08/27 03:10:15;;;;;;;6.03;4.90;;;;;;;;;;5205346;28;20028;-66
2022/08/27 03:12:45;;;;;;;5.25;4.95;;;;;;;;;;5205343;28;20045;-67
2022/08/27 03:15:16;;;;;;;7.32;5.75;;;;;;;;;;5204737;28;20061;-67
2022/08/27 03:20:39;;;;;;;9.57;5.75;;;;;;;;;;5205141;28;20535;-67
2022/08/27 03:23:10;;;;;;;7.65;5.85;;;;;;;;;;5205179;28;20013;-67
2022/08/27 03:25:42;;;;;;;6.82;6.32;;;;;;;;;;5204574;28;20056;-67
2022/08/27 03:28:14;;;;;;;6.18;5.68;;;;;;;;;;5204714;28;20103;-67
2022/08/27 03:30:46;;;;;;;5.95;5.55;;;;;;;;;;5204560;28;20496;-66
2022/08/27 03:33:18;;;;;;;6.88;6.43;;;;;;;;;;5204490;28;20366;-66
2022/08/27 03:35:49;;;;;;;6.82;5.78;;;;;;;;;;5204376;28;20057;-66
2022/08/27 03:38:19;;;;;;;8.23;7.55;;;;;;;;;;5204551;28;20052;-66
2022/08/27 03:40:49;;;;;;;6.68;6.18;;;;;;;;;;5204427;28;20017;-67
2022/08/27 03:43:20;;;;;;;9.30;7.18;;;;;;;;;;5203047;28;20021;-67
2022/08/27 03:45:51;;;;;;;9.70;7.15;;;;;;;;;;5204235;28;20064;-66
2022/08/27 03:48:21;;;;;;;7.00;6.45;;;;;;;;;;5204158;28;20045;-66
2022/08/27 03:50:51;;;;;;;7.33;6.63;;;;;;;;;;5203939;28;20025;-66
2022/08/27 03:53:22;;;;;;;5.70;5.28;;;;;;;;;;5203098;28;20296;-66
2022/08/27 03:55:52;;;;;;;5.95;5.63;;;;;;;;;;5203800;28;20085;-66
2022/08/27 03:58:22;;;;;;;7.25;5.78;;;;;;;;;;5202519;28;20017;-66
2022/08/27 04:00:52;;;;;;;6.32;5.82;;;;;;;;;;5204564;28;20032;-66
2022/08/27 04:03:23;;;;;;;12.05;5.90;;;;;;;;;;5204019;28;20093;-66
2022/08/27 04:05:54;;;;;;;12.07;6.78;;;;;;;;;;5203902;28;20025;-66
2022/08/27 04:08:24;;;;;;;6.38;5.88;;;;;;;;;;5203873;28;20029;-66
2022/08/27 04:10:55;;;;;;;6.95;6.00;;;;;;;;;;5204026;28;20032;-66
2022/08/27 04:13:26;;;;;;;5.97;5.63;;;;;;;;;;5203857;28;20178;-66
2022/08/27 04:15:56;;;;;;;5.70;5.22;;;;;;;;;;5202881;28;20022;-66
2022/08/27 04:18:27;;;;;;;6.13;5.60;;;;;;;;;;5204042;28;20017;-66
2022/08/27 04:20:57;;;;;;;5.87;5.43;;;;;;;;;;5203541;28;20037;-66
2022/08/27 04:23:27;;;;;;;6.65;6.05;;;;;;;;;;5202911;28;20260;-66
2022/08/27 04:25:57;;;;;;;7.05;6.43;;;;;;;;;;5203489;28;20079;-66
2022/08/27 04:28:28;;;;;;;8.50;6.57;;;;;;;;;;5203864;28;20155;-66
2022/08/27 04:30:58;;;;;;;7.28;6.65;;;;;;;;;;5204363;28;20330;-66
2022/08/27 04:33:30;;;;;;;6.55;6.15;;;;;;;;;;5202469;28;20021;-66
2022/08/27 04:36:01;;;;;;;5.57;5.15;;;;;;;;;;5202349;28;20021;-66
2022/08/27 04:38:32;;;;;;;10.75;7.60;;;;;;;;;;5202458;28;20068;-66
2022/08/27 04:41:18;;;;;;;11.30;6.18;;;;;;;;;;5202625;28;20057;-66
2022/08/27 04:43:50;;;;;;;6.68;6.18;;;;;;;;;;5202312;28;20033;-66
2022/08/27 04:46:25;;;;;;;12.75;7.47;;;;;;;;;;5202870;28;20049;-66
2022/08/27 04:48:56;;;;;;;6.95;6.45;;;;;;;;;;5202922;28;20029;-66
2022/08/27 04:51:27;;;;;;;8.02;7.38;;;;;;;;;;5201298;28;20398;-66
2022/08/27 04:54:00;;;;;;;9.20;7.30;;;;;;;;;;5201395;28;20053;-66
2022/08/27 04:56:30;;;;;;;10.45;8.10;;;;;;;;;;5202679;28;20025;-67
2022/08/27 04:59:02;;;;;;;6.93;6.32;;;;;;;;;;5202763;28;20029;-66
2022/08/27 05:01:33;;;;;;;6.05;5.53;;;;;;;;;;5202878;28;20043;-66
2022/08/27 05:04:04;;;;;;;7.10;6.57;;;;;;;;;;5202767;28;20014;-67
2022/08/27 05:06:35;;;;;;;8.13;7.50;;;;;;;;;;5200166;28;20088;-67
2022/08/27 05:09:05;;;;;;;8.15;7.30;;;;;;;;;;5207004;28;20033;-68
2022/08/27 05:11:36;;;;;;;6.32;5.93;;;;;;;;;;5207162;28;20024;-67
2022/08/27 05:14:07;;;;;;;7.15;6.65;;;;;;;;;;5205286;28;20079;-67
2022/08/27 05:16:38;;;;;;;7.00;6.45;;;;;;;;;;5207496;28;20018;-69
2022/08/27 05:19:10;;;;;;;7.30;6.80;;;;;;;;;;5207267;28;20487;-68
2022/08/27 05:21:45;;;;;;;11.55;6.88;;;;;;;;;;5205682;28;20021;-67
2022/08/27 05:24:16;;;;;;;12.68;7.93;;;;;;;;;;5207398;28;20485;-67
2022/08/27 05:26:47;;;;;;;7.07;6.57;;;;;;;;;;5231028;23;20132;-82
2022/08/27 05:29:18;;;;;;;5.85;5.30;;;;;;;;;;5225335;28;20017;-83
2022/08/27 05:31:48;;;;;;;6.82;5.65;;;;;;;;;;5215740;28;20025;-81
2022/08/27 05:34:20;;;;;;;14.18;6.80;;;;;;;;;;5215664;28;20478;-80
2022/08/27 05:36:51;;;;;;;6.18;5.78;;;;;;;;;;5215069;28;20029;-80
2022/08/27 05:39:22;;;;;;;8.18;7.60;;;;;;;;;;5214751;28;20021;-81
2022/08/27 05:41:55;;;;;;;6.88;6.32;;;;;;;;;;5216328;28;20017;-81
2022/08/27 05:44:25;;;;;;;10.02;6.75;;;;;;;;;;5214719;28;20024;-84
2022/08/27 05:46:56;;;;;;;9.45;8.50;;;;;;;;;;5217651;28;20081;-82
2022/08/27 05:49:26;;;;;;;6.57;6.07;;;;;;;;;;5217523;28;20014;-82
2022/08/27 05:51:56;;;;;;;7.63;6.90;;;;;;;;;;5214561;28;20561;-82
2022/08/27 05:54:26;;;;;;;6.43;5.90;;;;;;;;;;5216835;28;20257;-83
2022/08/27 05:56:57;;;;;;;6.88;6.30;;;;;;;;;;5216848;28;20436;-82
2022/08/27 06:02:17;;;;;;;6.88;6.40;;;;;;;;;;5217359;28;20166;-81
2022/08/27 06:04:48;;;;;;;7.22;6.45;;;;;;;;;;5217687;28;20040;-82
2022/08/27 06:07:18;;;;;;;6.20;5.50;;;;;;;;;;5219360;28;20538;-84
2022/08/27 06:09:48;;;;;;;7.65;6.43;;;;;;;;;;5219375;28;20052;-83
2022/08/27 06:12:19;;;;;;;9.77;5.70;;;;;;;;;;5219577;28;20025;-83
2022/08/27 06:14:49;;;;;;;6.90;6.40;;;;;;;;;;5217039;28;20017;-84
2022/08/27 06:17:20;;;;;;;7.55;6.90;;;;;;;;;;5218649;28;20013;-82
2022/08/27 06:19:50;;;;;;;5.80;5.40;;;;;;;;;;5217339;28;20064;-82
2022/08/27 06:22:20;;;;;;;6.43;6.03;;;;;;;;;;5219748;28;20017;-83
2022/08/27 06:24:51;;;;;;;5.90;5.45;;;;;;;;;;5225151;28;20028;-82
2022/08/27 06:27:21;;;;;;;5.93;5.30;;;;;;;;;;5224057;28;20034;-83
2022/08/27 06:29:51;;;;;;;7.05;6.60;;;;;;;;;;5226719;28;20033;-83
2022/08/27 06:32:23;;;;;;;7.40;6.90;;;;;;;;;;5220689;28;20028;-83
2022/08/27 06:34:53;;;;;;;10.07;5.28;;;;;;;;;;5218047;28;20022;-80
2022/08/27 06:37:23;;;;;;;6.05;5.47;;;;;;;;;;5218627;28;20475;-80
2022/08/27 06:39:54;;;;;;;8.10;7.43;;;;;;;;;;5215348;28;20089;-79
2022/08/27 06:42:24;;;;;;;11.40;7.68;;;;;;;;;;5212504;28;20415;-81
2022/08/27 06:44:54;;;;;;;7.63;6.40;;;;;;;;;;5213841;28;20037;-82
2022/08/27 06:47:25;;;;;;;7.03;6.53;;;;;;;;;;5215700;28;20025;-81
2022/08/27 06:49:56;;;;;;;8.15;5.88;;;;;;;;;;5217107;28;20100;-83
2022/08/27 06:52:26;;;;;;;6.28;5.78;;;;;;;;;;5218788;28;20021;-81
2022/08/27 06:54:57;;;;;;;6.18;5.72;;;;;;;;;;5216904;28;20026;-82
2022/08/27 06:57:27;;;;;;;10.60;6.25;;;;;;;;;;5215885;28;20026;-80
2022/08/27 06:59:58;;;;;;;6.15;4.97;;;;;;;;;;5214191;28;20021;-83
2022/08/27 07:02:28;;;;;;;7.75;5.00;;;;;;;;;;5215868;28;20104;-82
2022/08/27 07:04:59;;;;;;;11.23;7.32;;;;;;;;;;5217957;28;20539;-81
2022/08/27 07:07:29;;;;;;;10.50;5.65;;;;;;;;;;5215812;28;20116;-81
2022/08/27 07:09:59;;;;;;;6.15;5.75;;;;;;;;;;5216857;28;20026;-80
2022/08/27 07:12:29;;;;;;;11.52;6.60;;;;;;;;;;5215467;28;20021;-81
2022/08/27 07:15:00;;;;;;;9.20;5.32;;;;;;;;;;5215153;28;20021;-82
2022/08/27 07:17:30;;;;;;;5.88;5.28;;;;;;;;;;5216558;28;20079;-82
2022/08/27 07:20:00;;;;;;;9.18;5.25;;;;;;;;;;5218413;28;20018;-82
2022/08/27 07:22:31;;;;;;;4.07;3.72;;;;;;;;;;5218592;28;20421;-81
2022/08/27 07:25:01;;;;;;;5.28;4.93;;;;;;;;;;5220311;28;20031;-81
2022/08/27 07:27:32;;;;;;;3.88;3.50;;;;;;;;;;5217069;28;20037;-82
2022/08/27 07:30:03;;;;;;;7.50;4.65;;;;;;;;;;5217454;28;20022;-81
2022/08/27 07:32:34;;;;;;;4.00;3.75;;;;;;;;;;5218153;28;20051;-81
2022/08/27 07:35:08;;;;;;;4.40;4.05;;;;;;;;;;5217556;28;20021;-81
2022/08/27 07:37:39;;;;;;;5.10;4.15;;;;;;;;;;5218352;28;20021;-84
2022/08/27 07:40:11;;;;;;;3.67;3.42;;;;;;;;;;5217007;28;20013;-82
2022/08/27 07:45:30;;;;;;;9.20;3.80;;;;;;;;;;5217418;28;20063;-82
2022/08/27 07:48:00;;;;;;;8.38;4.53;;;;;;;;;;5216604;28;20260;-83
2022/08/27 07:50:32;;;;;;;3.20;3.00;;;;;;;;;;5215562;28;20021;-82
2022/08/27 07:53:02;;;;;;;3.55;3.15;;;;;;;;;;5216255;28;20025;-82
2022/08/27 07:55:34;;;;;;;4.47;3.92;;;;;;;;;;5216907;28;20387;-81
2022/08/27 07:58:05;;;;;;;3.90;3.67;;;;;;;;;;5216796;28;20021;-81
2022/08/27 08:00:35;;;;;;;9.65;4.57;;;;;;;;;;5217257;28;20020;-81
2022/08/27 08:03:06;;;;;;;2.92;2.72;;;;;;;;;;5217114;28;20022;-82
2022/08/27 08:05:40;;;;;;;6.67;3.93;;;;;;;;;;5217196;28;20730;-83
2022/08/27 08:08:10;;;;;;;9.05;3.58;;;;;;;;;;5213757;28;20271;-83
2022/08/27 08:10:42;;;;;;;5.75;3.35;;;;;;;;;;5216492;28;20021;-83
2022/08/27 08:13:12;;;;;;;4.57;2.83;;;;;;;;;;5218282;28;20024;-83
2022/08/27 08:15:43;;;;;;;6.57;4.60;;;;;;;;;;5217924;28;20021;-84
2022/08/27 08:18:14;;;;;;;4.30;3.72;;;;;;;;;;5217812;28;20076;-82
2022/08/27 08:20:46;;;;;;;2.42;2.28;;;;;;;;;;5216649;28;20493;-84
2022/08/27 08:23:17;;;;;;;2.42;2.33;;;;;;;;;;5217030;28;20028;-83
2022/08/27 08:25:47;;;;;;;4.60;2.67;;;;;;;;;;5216683;28;20021;-84
2022/08/27 08:28:17;;;;;;;4.35;3.17;;;;;;;;;;5220062;28;20029;-84
2022/08/27 08:30:47;;;;;;;5.07;3.55;;;;;;;;;;5223521;28;20109;-84
2022/08/27 08:33:18;;;;;;;3.03;2.47;;;;;;;;;;5217677;28;20032;-84
2022/08/27 08:35:48;;;;;;;2.30;2.20;;;;;;;;;;5217627;28;20026;-85
2022/08/27 08:38:19;;;;;;;5.63;2.50;;;;;;;;;;5218644;28;20025;-83
2022/08/27 08:40:52;;;;;;;3.65;3.45;;;;;;;;;;5218878;28;20018;-82
2022/08/27 08:43:31;;;;;;;3.88;3.67;;;;;;;;;;5216538;28;20017;-82
2022/08/27 08:46:15;;;;;;;2.97;2.78;;;;;;;;;;5218590;28;20087;-82
2022/08/27 08:48:47;;;;;;;2.47;2.28;;;;;;;;;;5219711;28;20013;-82
2022/08/27 08:51:30;;;;;;;2.80;2.60;;;;;;;;;;5221280;28;20028;-83
2022/08/27 08:54:00;;;;;;;4.80;3.10;;;;;;;;;;5220030;28;20502;-83
2022/08/27 08:56:36;;;;;;;2.67;2.47;;;;;;;;;;5221296;28;20022;-84
2022/08/27 08:59:14;;;;;;;3.17;2.95;;;;;;;;;;5222040;28;20001;-84
2022/08/27 09:01:44;;;;;;;3.25;2.47;;;;;;;;;;5221927;28;20048;-83
2022/08/27 09:04:15;;;;;;;2.25;2.15;;;;;;;;;;5222000;28;20017;-84
2022/08/27 09:06:51;;;;;;;3.38;3.08;;;;;;;;;;5221578;28;20065;-82
2022/08/27 09:09:24;;;;;;;3.40;2.70;;;;;;;;;;5221775;28;20016;-83
2022/08/27 09:12:00;;;;;;;2.20;2.10;;;;;;;;;;5219966;28;20024;-83
2022/08/27 09:14:39;;;;;;;2.80;2.60;;;;;;;;;;5219167;28;20041;-84
2022/08/27 09:17:10;;;;;;;5.65;3.88;;;;;;;;;;5222162;28;20014;-82
2022/08/27 09:19:41;;;;;;;2.67;2.35;;;;;;;;;;5214384;28;20361;-84
2022/08/27 09:22:11;;;;;;;2.63;2.53;;;;;;;;;;5212420;28;20076;-84
2022/08/27 09:24:51;;;;;;;3.30;3.10;;;;;;;;;;5208280;28;20056;-83
2022/08/27 09:27:22;;;;;;;5.75;2.47;;;;;;;;;;5211925;28;20491;-83
2022/08/27 09:29:53;;;;;;;3.85;2.33;;;;;;;;;;5212074;28;20029;-83
2022/08/27 09:32:25;;;;;;;2.78;2.28;;;;;;;;;;5209160;28;20229;-85
2022/08/27 09:34:56;;;;;;;2.92;2.67;;;;;;;;;;5210143;28;20025;-83
2022/08/27 09:37:30;;;;;;;3.30;2.47;;;;;;;;;;5210247;28;20045;-83
2022/08/27 09:40:10;;;;;;;3.13;2.83;;;;;;;;;;5209574;28;20046;-83
2022/08/27 09:42:42;;;;;;;2.53;1.92;;;;;;;;;;5205956;28;20021;-85
2022/08/27 09:45:19;;;;;;;4.78;3.03;;;;;;;;;;5207430;28;20021;-85
2022/08/27 09:47:51;;;;;;;3.97;3.50;;;;;;;;;;5207327;28;20074;-84
2022/08/27 09:50:22;;;;;;;2.88;2.75;;;;;;;;;;5207455;28;20020;-85
2022/08/27 09:52:57;;;;;;;3.75;3.47;;;;;;;;;;5210559;28;20026;-84
2022/08/27 09:55:31;;;;;;;3.05;2.72;;;;;;;;;;5211463;28;20025;-83
2022/08/27 09:58:02;;;;;;;6.60;2.10;;;;;;;;;;5209891;28;20044;-83
2022/08/27 10:00:37;;;;;;;3.72;2.15;;;;;;;;;;5211847;28;20411;-84
2022/08/27 10:03:08;;;;;;;2.33;2.20;;;;;;;;;;5210230;28;20382;-83
2022/08/27 10:05:42;;;;;;;2.97;2.88;;;;;;;;;;5211982;28;20518;-84
2022/08/27 10:08:18;;;;;;;2.35;2.15;;;;;;;;;;5212759;28;20104;-85
2022/08/27 10:10:48;;;;;;;3.92;3.55;;;;;;;;;;5211403;28;20056;-81
2022/08/27 10:13:21;;;;;;;4.43;2.10;;;;;;;;;;5211550;28;20029;-83
2022/08/27 10:15:51;;;;;;;3.03;2.83;;;;;;;;;;5207447;28;20022;-82
2022/08/27 10:18:30;;;;;;;3.13;2.93;;;;;;;;;;5205091;28;20429;-83
2022/08/27 10:21:00;;;;;;;2.65;2.47;;;;;;;;;;5208559;28;20738;-83
2022/08/27 10:23:30;;;;;;;3.08;2.88;;;;;;;;;;5209424;28;20049;-83
2022/08/27 10:26:14;;;;;;;2.70;2.00;;;;;;;;;;5214102;28;20049;-83
2022/08/27 10:29:02;;;;;;;2.90;2.70;;;;;;;;;;5214244;28;20540;-82
2022/08/27 10:31:39;;;;;;;3.08;2.78;;;;;;;;;;5214411;28;20105;-82
2022/08/27 10:34:19;;;;;;;2.22;2.03;;;;;;;;;;5215377;28;20120;-83
2022/08/27 10:37:03;;;;;;;5.75;4.05;;;;;;;;;;5213969;28;20027;-84
2022/08/27 10:39:51;;;;;;;2.75;2.65;;;;;;;;;;5214627;28;20021;-83
2022/08/27 10:42:29;;;;;;;6.28;3.47;;;;;;;;;;5215449;28;20419;-82
2022/08/27 10:45:03;;;;;;;7.03;2.63;;;;;;;;;;5215638;28;20025;-82
2022/08/27 10:47:33;;;;;;;2.63;2.53;;;;;;;;;;5214629;28;20029;-83
2022/08/27 10:50:10;;;;;;;2.73;2.50;;;;;;;;;;5214112;28;20021;-84
2022/08/27 10:52:50;;;;;;;4.07;3.47;;;;;;;;;;5213018;28;20266;-84
2022/08/27 10:55:23;;;;;;;3.90;3.35;;;;;;;;;;5211911;28;20033;-85
2022/08/27 10:58:11;;;;;;;5.20;3.35;;;;;;;;;;5213279;28;20040;-85
2022/08/27 11:00:46;;;;;;;4.30;3.67;;;;;;;;;;5212849;28;20433;-85
2022/08/27 11:03:32;;;;;;;5.22;3.45;;;;;;;;;;5208368;28;20018;-83
2022/08/27 11:06:08;;;;;;;4.18;3.47;;;;;;;;;;5211719;28;20391;-84
2022/08/27 11:08:40;;;;;;;2.58;2.47;;;;;;;;;;5211566;28;20116;-85
2022/08/27 11:11:12;;;;;;;2.78;2.35;;;;;;;;;;5208502;28;20021;-84
2022/08/27 11:13:45;;;;;;;2.72;2.20;;;;;;;;;;5209617;28;20021;-85
2022/08/27 11:16:19;;;;;;;3.88;2.78;;;;;;;;;;5210192;28;20033;-85
2022/08/27 11:18:58;;;;;;;2.83;2.13;;;;;;;;;;5212212;28;20017;-85
2022/08/27 11:21:44;;;;;;;3.17;2.95;;;;;;;;;;5223393;28;20005;-86
2022/08/27 11:24:20;;;;;;;2.55;2.45;;;;;;;;;;5215899;28;20017;-84
2022/08/27 11:26:52;;;;;;;3.60;2.97;;;;;;;;;;5230202;22;20563;-69
2022/08/27 11:29:31;;;;;;;3.17;2.97;;;;;;;;;;5202777;28;20028;-70
2022/08/27 11:32:15;;;;;;;4.90;3.45;;;;;;;;;;5202753;28;20500;-68
2022/08/27 11:34:48;;;;;;;7.50;4.28;;;;;;;;;;5199202;28;20430;-68
2022/08/27 11:37:33;;;;;;;3.58;3.25;;;;;;;;;;5202221;28;20013;-69
2022/08/27 11:40:19;;;;;;;2.95;2.75;;;;;;;;;;5202440;28;20032;-69
2022/08/27 11:42:56;;;;;;;2.90;2.70;;;;;;;;;;5201890;28;20026;-71
2022/08/27 11:45:29;;;;;;;3.78;3.17;;;;;;;;;;5202750;28;20032;-68
2022/08/27 11:48:01;;;;;;;4.45;3.65;;;;;;;;;;5202481;28;20025;-69
2022/08/27 11:50:31;;;;;;;4.47;3.72;;;;;;;;;;5202980;28;20473;-70
2022/08/27 11:53:06;;;;;;;3.08;2.78;;;;;;;;;;5213303;28;20033;-72
2022/08/27 11:55:38;;;;;;;11.57;5.70;;;;;;;;;;5202614;28;20060;-69
2022/08/27 11:58:17;;;;;;;5.30;3.33;;;;;;;;;;5202663;28;20013;-69
2022/08/27 12:00:47;;;;;;;5.18;3.35;;;;;;;;;;5202557;28;20449;-67
2022/08/27 12:03:18;;;;;;;3.42;3.22;;;;;;;;;;5202261;28;20018;-68
2022/08/27 12:05:48;;;;;;;5.50;3.72;;;;;;;;;;5200441;28;20082;-71
2022/08/27 12:08:21;;;;;;;3.27;3.07;;;;;;;;;;5203050;28;20021;-71
2022/08/27 12:10:57;;;;;;;3.13;2.92;;;;;;;;;;5203319;28;20276;-68
2022/08/27 12:13:54;;;;;;;4.60;3.03;;;;;;;;;;5202907;28;20113;-71
2022/08/27 12:16:44;;;;;;;3.58;3.28;;;;;;;;;;5171016;28;20045;-66
2022/08/27 12:19:22;;;;;;;5.05;3.45;;;;;;;;;;5161491;28;20083;-70
2022/08/27 12:22:04;;;;;;;6.45;3.78;;;;;;;;;;5202507;28;20065;-68
2022/08/27 12:24:41;;;;;;;3.97;3.70;;;;;;;;;;5200181;28;20095;-67
2022/08/27 12:27:14;;;;;;;3.88;3.58;;;;;;;;;;5200114;28;20033;-68
2022/08/27 12:30:03;;;;;;;5.45;2.92;;;;;;;;;;5202256;28;20429;-68
2022/08/27 12:32:38;;;;;;;2.60;2.42;;;;;;;;;;5202159;28;20103;-68
2022/08/27 12:35:18;;;;;;;2.67;2.50;;;;;;;;;;5203535;28;20024;-67
2022/08/27 12:38:10;;;;;;;3.08;2.88;;;;;;;;;;5202336;28;20419;-68
2022/08/27 12:40:45;;;;;;;3.22;3.05;;;;;;;;;;5207239;28;20013;-68
2022/08/27 12:43:20;;;;;;;2.60;2.50;;;;;;;;;;5209514;28;20108;-68
2022/08/27 12:45:56;;;;;;;4.07;3.80;;;;;;;;;;5199484;28;20033;-67
2022/08/27 12:48:29;;;;;;;2.80;2.60;;;;;;;;;;5200863;28;20091;-69
2022/08/27 12:51:00;;;;;;;2.65;2.10;;;;;;;;;;5199840;28;20028;-69
2022/08/27 12:53:53;;;;;;;4.32;2.53;;;;;;;;;;5200542;28;20021;-69
2022/08/27 12:56:27;;;;;;;2.92;2.72;;;;;;;;;;5193131;28;20033;-68
2022/08/27 12:59:16;;;;;;;3.90;3.17;;;;;;;;;;5201957;28;20013;-70
2022/08/27 13:02:01;;;;;;;3.15;2.95;;;;;;;;;;5200645;28;20022;-69
2022/08/27 13:04:32;;;;;;;4.20;3.20;;;;;;;;;;5200699;28;20362;-70
2022/08/27 13:07:02;;;;;;;2.50;2.33;;;;;;;;;;5201439;28;20489;-68
2022/08/27 13:09:34;;;;;;;2.90;2.80;;;;;;;;;;5200132;28;20072;-68
2022/08/27 13:12:06;;;;;;;4.47;4.00;;;;;;;;;;5198794;28;20627;-69
2022/08/27 13:14:37;;;;;;;3.10;2.90;;;;;;;;;;5201777;28;20152;-69
2022/08/27 13:17:16;;;;;;;2.58;2.42;;;;;;;;;;5202637;28;20124;-68
2022/08/27 13:19:56;;;;;;;2.92;2.33;;;;;;;;;;5202552;28;20030;-70
2022/08/27 13:22:29;;;;;;;2.03;1.92;;;;;;;;;;5202647;28;20025;-69
2022/08/27 13:25:00;;;;;;;3.38;3.13;;;;;;;;;;5201168;28;20065;-68
2022/08/27 13:27:32;;;;;;;6.45;3.22;;;;;;;;;;5202099;28;20706;-71
2022/08/27 13:30:07;;;;;;;3.28;2.72;;;;;;;;;;5206236;28;20017;-70
2022/08/27 13:32:37;;;;;;;2.90;2.78;;;;;;;;;;5205624;28;20063;-70
2022/08/27 13:35:08;;;;;;;5.28;2.72;;;;;;;;;;5204798;28;20021;-69
2022/08/27 13:37:46;;;;;;;2.55;2.35;;;;;;;;;;5206528;28;20022;-68
2022/08/27 13:40:27;;;;;;;2.72;2.63;;;;;;;;;;5204253;28;20013;-69
2022/08/27 13:43:02;;;;;;;3.03;2.85;;;;;;;;;;5206235;28;20393;-69
2022/08/27 13:45:32;;;;;;;3.42;2.03;;;;;;;;;;5205610;28;20511;-68
2022/08/27 13:48:03;;;;;;;2.58;2.47;;;;;;;;;;5206402;28;20246;-68
2022/08/27 13:56:06;;;;;;;7.38;3.13;;;;;;;;;;5205699;28;20485;-68
2022/08/27 13:58:36;;;;;;;2.50;2.30;;;;;;;;;;5206070;28;20013;-68
2022/08/27 14:01:14;;;;;;;5.53;2.67;;;;;;;;;;5205557;28;20291;-68
2022/08/27 14:03:49;;;;;;;2.38;2.17;;;;;;;;;;5188404;28;20066;-68
2022/08/27 14:06:24;;;;;;;2.17;2.05;;;;;;;;;;5206179;28;20029;-66
2022/08/27 14:08:54;;;;;;;2.30;2.20;;;;;;;;;;5206492;28;20499;-68
2022/08/27 14:11:26;;;;;;;2.90;2.58;;;;;;;;;;5205775;28;20056;-69
2022/08/27 14:13:57;;;;;;;4.32;3.33;;;;;;;;;;5205857;28;20021;-67
2022/08/27 14:16:29;;;;;;;4.07;3.78;;;;;;;;;;5206564;28;20357;-68
2022/08/27 14:19:02;;;;;;;2.42;1.90;;;;;;;;;;5187935;28;20021;-70
2022/08/27 14:21:34;;;;;;;3.17;2.97;;;;;;;;;;5204477;28;20029;-67
2022/08/27 14:24:04;;;;;;;3.47;2.22;;;;;;;;;;5206065;28;20038;-67
2022/08/27 14:26:35;;;;;;;4.05;3.67;;;;;;;;;;5206350;28;20115;-68
2022/08/27 14:29:05;;;;;;;2.33;2.22;;;;;;;;;;5205774;28;20021;-68
2022/08/27 14:31:35;;;;;;;2.93;2.37;;;;;;;;;;5204868;28;20067;-68
2022/08/27 14:34:07;;;;;;;2.42;2.28;;;;;;;;;;5204769;28;20371;-67
2022/08/27 14:36:38;;;;;;;4.10;2.22;;;;;;;;;;5203569;28;20048;-68
2022/08/27 14:39:09;;;;;;;2.58;2.47;;;;;;;;;;5202545;28;20369;-68
2022/08/27 14:41:39;;;;;;;3.17;2.97;;;;;;;;;;5204276;28;20024;-67
2022/08/27 14:44:09;;;;;;;3.42;1.92;;;;;;;;;;5204945;28;20482;-68
2022/08/27 14:46:40;;;;;;;2.13;2.03;;;;;;;;;;5205392;28;20053;-68
2022/08/27 14:49:12;;;;;;;3.20;3.00;;;;;;;;;;5186864;28;20264;-67
2022/08/27 14:51:44;;;;;;;3.22;2.63;;;;;;;;;;5292495;22;20132;-90
2022/08/27 14:54:14;;;;;;;5.53;3.38;;;;;;;;;;5232339;28;20025;-89
2022/08/27 14:56:45;;;;;;;3.00;2.33;;;;;;;;;;5233036;28;20029;-90
2022/08/27 14:59:15;;;;;;;6.50;3.65;;;;;;;;;;5232322;28;20263;-90
2022/08/27 15:01:46;;;;;;;1.83;1.73;;;;;;;;;;5216416;28;20086;-91
2022/08/27 15:04:16;;;;;;;5.70;2.55;;;;;;;;;;5215852;28;20021;-90
2022/08/27 15:06:49;;;;;;;4.00;2.05;;;;;;;;;;5203668;28;20018;-91
2022/08/27 15:09:19;;;;;;;2.75;2.58;;;;;;;;;;5183220;28;20013;-90
2022/08/27 15:11:50;;;;;;;3.58;2.90;;;;;;;;;;5183747;28;20037;-90
2022/08/27 15:14:24;;;;;;;4.03;2.42;;;;;;;;;;5190997;28;20441;-89
2022/08/27 15:16:54;;;;;;;1.70;1.60;;;;;;;;;;5173836;28;20028;-88
2022/08/27 15:19:25;;;;;;;2.20;2.10;;;;;;;;;;5173521;28;20427;-88
2022/08/27 15:22:11;;;;;;;2.63;1.98;;;;;;;;;;5173169;28;20022;-89
2022/08/27 15:24:44;;;;;;;2.00;1.90;;;;;;;;;;5216335;28;20018;-89
2022/08/27 15:27:14;;;;;;;3.35;2.83;;;;;;;;;;5207783;28;20013;-89
2022/08/27 15:29:46;;;;;;;2.92;2.72;;;;;;;;;;5210953;28;20018;-88